This is the latest recevied weather packets stored in our database for station/object W4MLN-1. If no packets are shown the sender has not sent any weather packets the latest 10 day(s).
| Time | Temp. | Humidity | Pressure | Rain* | Wind** | Luminosity | Snow |
|---|---|---|---|---|---|---|---|
| 1777744082 | 11.67° C | 46% | 1012.3 hPa | 0 mm | - | 348 W/m² | - |
| 1777743781 | 11.67° C | 48% | 1012.5 hPa | 0 mm | - | 777 W/m² | - |
| 1777743482 | 12.22° C | 45% | 1012.5 hPa | 0 mm | - | 899 W/m² | - |
| 1777743182 | 11.67° C | 49% | 1012.6 hPa | 0 mm | - | 1011 W/m² | - |
| 1777742882 | 11.67° C | 48% | 1012.6 hPa | 0 mm | - | 1038 W/m² | - |
| 1777742582 | 11.67° C | 44% | 1012.6 hPa | 0 mm | - | 1054 W/m² | - |
| 1777742282 | 11.67° C | 45% | 1012.6 hPa | 0 mm | - | 1031 W/m² | - |
| 1777741982 | 11.67° C | 46% | 1012.7 hPa | 0 mm | - | 1035 W/m² | - |
| 1777741683 | 11.67° C | 44% | 1012.7 hPa | 0 mm | - | 1033 W/m² | - |
| 1777741382 | 11.67° C | 45% | 1012.7 hPa | 0 mm | - | 1061 W/m² | - |
| 1777741081 | 11.11° C | 46% | 1013.1 hPa | 0 mm | - | 1035 W/m² | - |
| 1777740780 | 11.67° C | 45% | 1013.1 hPa | 0 mm | - | 933 W/m² | - |
| 1777740481 | 11.11° C | 44% | 1013.2 hPa | 0 mm | - | 959 W/m² | - |
| 1777740181 | 11.11° C | 47% | 1013.2 hPa | 0 mm | - | 930 W/m² | - |
| 1777739881 | 11.11° C | 46% | 1013.2 hPa | 0 mm | - | 851 W/m² | - |
| 1777739582 | 11.11° C | 44% | 1013.2 hPa | 0 mm | - | 898 W/m² | - |
| 1777739281 | 11.11° C | 44% | 1013.3 hPa | 0 mm | - | 951 W/m² | - |
| 1777738981 | 11.11° C | 43% | 1013.3 hPa | 0 mm | - | 975 W/m² | - |
| 1777738681 | 11.11° C | 44% | 1013.4 hPa | 0 mm | - | 841 W/m² | - |
| 1777738381 | 11.11° C | 42% | 1013.3 hPa | 0 mm | - | 583 W/m² | - |
| 1777738082 | 11.11° C | 43% | 1013.2 hPa | 0 mm | - | 621 W/m² | - |
| 1777737780 | 11.11° C | 42% | 1013.3 hPa | 0 mm | - | 589 W/m² | - |
| 1777737478 | 10.56° C | 42% | 1013.3 hPa | 0 mm | - | 716 W/m² | - |
| 1777737177 | 11.11° C | 40% | 1013.2 hPa | 0 mm | - | 606 W/m² | - |
| 1777736878 | 11.11° C | 41% | 1013.2 hPa | 0 mm | - | 877 W/m² | - |
* Rain latest hour (hover to see other rain measurements)
** Current wind speed in m/s (hover to see current wind gust speed)